Dana, IL (61321)

5:53 PM CST on February 27, 2015 (GMT -0600)
APRSWXNET Minonk IL US | Change Station
CLOSE
Current Station
Personal Weather Station
Location: Woodford, IL
Elevation: 771 ft
Nearby Weather Stations

Elev 771 ft 40.89 °N, 89.03 °W | Updated 27 minutes ago

Clear
Clear
11 °F
Feels Like 11 °F
N
0
Wind Variable Wind from NW
Gusts 3.0 mph

Today
High -- | Low -- °F
--% Chance of Precip.
Yesterday
High -- | Low -- °F
Precip. -- in
6:33 AM 5:44 PM
Waxing Gibbous, 72% visible
Pressure 30.65 in
Visibility 10.0 miles
Clouds Clear
Windchill 11 °F
Dew Point 1 °F
Humidity 63%
Rainfall 0.00 in
Snow Depth Not available.
UV 0 out of 12
Pollen .50 out of 12
Air Quality Not available.
Flu Activity Not available.
METAR KPNT 272335Z AUTO 00000KT 10SM CLR M13/M18 A3065 RMK AO2 T11261184

More Conditions Fewer Conditions

Pressure 30.65 in
Visibility 10.0 miles
Clouds Clear
Windchill 11 °F
Dew Point 1 °F
Humidity 63%
Rainfall 0.00 in
Snow Depth Not available.
UV 0 out of 12
Pollen .50 out of 12
Air Quality Not available.
Flu Activity Not available.
METAR KPNT 272335Z AUTO 00000KT 10SM CLR M13/M18 A3065 RMK AO2 T11261184

More Conditions Fewer Conditions

10-Day Weather Forecast

Almanac

Astronomy

Feb. 27, 2015 Rise Set
Actual Time
Civil Twilight
Nautical Twilight
Astronomical Twilight
Moon
Length of Visible Light
Length of Day
Tomorrow will be .
, % of the Moon is Illuminated

Today's Extremes

State Highs State Lows

Community

WunderPhotos

Upload Photos

1,800,881 photos uploaded!

WunderBlogs® & News

Nearby

Air Quality

  Air Quality AQ Index Pollutant
Not available.

Snow Depth

Station Depth Elevation

Earthquake Activity

City Distance Mag. Time & Date
Minimum magnitude displayed is 2.5.

Coastal Water Temperatures

Place Temperature

Nearby Weather Stations